Time;durP1;ratioP1;P1;durP2;ratioP2;P2;SDS_P1;SDS_P2;PMS_P1;PMS_P2;Temp;Humidity;BMP_temperature;BMP_pressure;BME280_temperature;BME280_humidity;BME280_pressure;Samples;Min_cycle;Max_cycle;Signal;HPM_P1;HPM_P2
2022/09/13 00:00:33;;;;;;;5.40;4.93;;;19.30;80.70;;;;;;5094175;28;20203;-86
2022/09/13 00:02:59;;;;;;;5.93;5.20;;;19.40;80.30;;;;;;5100119;28;20695;-86
2022/09/13 00:05:25;;;;;;;4.65;4.35;;;19.40;79.60;;;;;;5102062;28;20176;-87
2022/09/13 00:07:51;;;;;;;5.68;5.18;;;19.40;79.20;;;;;;5101144;28;20173;-88
2022/09/13 00:10:17;;;;;;;5.43;4.95;;;19.40;79.20;;;;;;5101355;28;20219;-87
2022/09/13 00:12:43;;;;;;;6.00;5.30;;;19.40;79.70;;;;;;5102131;28;20265;-86
2022/09/13 00:15:09;;;;;;;5.55;5.05;;;19.40;79.40;;;;;;5100884;28;20187;-86
2022/09/13 00:17:36;;;;;;;5.13;4.72;;;19.30;79.50;;;;;;5101038;28;20182;-86
2022/09/13 00:20:02;;;;;;;5.65;5.15;;;19.20;80.00;;;;;;5100338;28;20191;-86
2022/09/13 00:22:28;;;;;;;5.43;4.82;;;19.10;80.40;;;;;;5101517;28;20222;-88
2022/09/13 00:24:54;;;;;;;5.28;4.70;;;19.10;80.00;;;;;;5100508;28;20557;-86
2022/09/13 00:27:20;;;;;;;5.15;4.72;;;19.00;80.70;;;;;;5103905;28;20710;-86
2022/09/13 00:29:45;;;;;;;5.35;4.85;;;19.00;80.40;;;;;;5096277;28;20199;-87
2022/09/13 00:32:12;;;;;;;5.15;4.20;;;19.00;80.20;;;;;;5091910;28;20224;-87
2022/09/13 00:34:37;;;;;;;5.38;4.88;;;19.10;80.00;;;;;;5094633;28;20270;-86
2022/09/13 00:37:03;;;;;;;5.18;4.78;;;19.20;79.60;;;;;;5099744;28;20245;-87
2022/09/13 00:39:29;;;;;;;5.30;4.80;;;19.20;79.40;;;;;;5100209;28;20363;-87
2022/09/13 00:41:55;;;;;;;6.28;4.97;;;19.10;79.20;;;;;;5100078;28;20631;-87
2022/09/13 00:44:49;;;;;;;5.55;5.05;;;19.10;79.20;;;;;;5101056;28;20177;-87
2022/09/13 00:47:20;;;;;;;5.10;4.70;;;19.10;78.80;;;;;;5094610;28;20187;-87
2022/09/13 00:49:49;;;;;;;4.70;4.40;;;19.10;78.80;;;;;;5092159;28;20210;-87
2022/09/13 00:52:19;;;;;;;5.25;4.70;;;19.10;79.10;;;;;;5095506;28;20192;-87
2022/09/13 00:54:54;;;;;;;6.18;4.63;;;19.10;78.60;;;;;;5103604;28;20185;-87
2022/09/13 00:57:22;;;;;;;4.40;4.10;;;19.00;79.10;;;;;;5091174;28;20195;-86
2022/09/13 00:59:55;;;;;;;4.90;4.60;;;19.00;78.70;;;;;;5089153;28;20210;-87
2022/09/13 01:02:21;;;;;;;5.15;4.75;;;19.00;78.60;;;;;;5101078;28;20206;-86
2022/09/13 01:04:47;;;;;;;5.68;5.03;;;19.00;78.30;;;;;;5098932;28;20179;-87
2022/09/13 01:07:15;;;;;;;4.53;4.22;;;19.00;78.50;;;;;;5096233;28;20186;-86
2022/09/13 01:09:44;;;;;;;5.68;5.18;;;18.90;79.00;;;;;;5097444;28;20218;-88
2022/09/13 01:12:42;;;;;;;5.05;4.65;;;18.90;79.20;;;;;;5110261;28;20197;-88
2022/09/13 01:15:08;;;;;;;7.10;4.90;;;19.00;78.50;;;;;;5100682;28;20192;-88
2022/09/13 01:17:35;;;;;;;4.60;4.28;;;18.90;78.70;;;;;;5105624;28;20198;-87
2022/09/13 01:20:02;;;;;;;4.97;4.43;;;18.80;79.90;;;;;;5105552;28;20196;-88
2022/09/13 01:22:31;;;;;;;5.75;4.65;;;18.80;79.80;;;;;;5105796;28;20222;-88
2022/09/13 01:25:27;;;;;;;6.82;5.00;;;18.80;79.90;;;;;;5108057;28;20194;-87
2022/09/13 01:28:33;;;;;;;5.03;4.63;;;18.70;79.40;;;;;;5099362;28;20198;-87
2022/09/13 01:31:31;;;;;;;5.00;4.60;;;18.60;79.40;;;;;;5092108;28;20262;-87
2022/09/13 01:34:26;;;;;;;5.15;4.65;;;18.40;81.70;;;;;;5090846;28;20171;-87
2022/09/13 01:37:12;;;;;;;5.22;4.93;;;18.10;83.80;;;;;;5076169;28;20218;-87
2022/09/13 01:40:03;;;;;;;5.15;4.75;;;18.00;83.20;;;;;;5096038;28;20202;-87
2022/09/13 01:42:38;;;;;;;5.35;4.95;;;18.00;84.20;;;;;;5097752;28;20198;-87
2022/09/13 01:45:22;;;;;;;5.10;4.70;;;18.00;83.50;;;;;;5104314;28;20542;-87
2022/09/13 01:48:00;;;;;;;5.25;4.85;;;18.00;83.40;;;;;;5101013;28;20231;-88
2022/09/13 01:50:46;;;;;;;4.97;4.60;;;18.00;84.00;;;;;;5087602;28;20191;-87
2022/09/13 01:53:31;;;;;;;5.72;5.20;;;18.10;83.50;;;;;;5092432;28;20236;-87
2022/09/13 01:56:25;;;;;;;6.13;5.20;;;18.20;82.30;;;;;;5091770;28;20178;-87
2022/09/13 01:59:02;;;;;;;5.13;4.63;;;18.30;81.80;;;;;;5093991;28;20206;-87
2022/09/13 02:01:32;;;;;;;5.68;5.07;;;18.40;81.50;;;;;;5094941;28;20190;-87
2022/09/13 02:04:09;;;;;;;4.50;4.20;;;18.40;80.80;;;;;;5098523;28;20218;-87
2022/09/13 02:07:21;;;;;;;6.63;4.90;;;18.40;80.80;;;;;;5072951;28;20186;-87
2022/09/13 02:09:55;;;;;;;5.53;5.00;;;18.40;81.50;;;;;;5093923;28;20657;-87
2022/09/13 02:12:24;;;;;;;5.80;4.93;;;18.40;81.20;;;;;;5093110;28;20195;-87
2022/09/13 02:14:59;;;;;;;5.43;4.93;;;18.40;80.40;;;;;;5100932;28;20248;-86
2022/09/13 02:17:29;;;;;;;6.38;4.70;;;18.30;80.70;;;;;;5093970;28;20198;-87
2022/09/13 02:19:57;;;;;;;4.97;4.60;;;18.30;81.90;;;;;;5091498;28;20596;-87
2022/09/13 02:22:33;;;;;;;4.88;4.43;;;18.30;81.40;;;;;;5094337;28;20206;-87
2022/09/13 02:25:05;;;;;;;5.07;4.68;;;18.40;80.70;;;;;;5086284;28;20183;-87
2022/09/13 02:27:33;;;;;;;5.30;4.80;;;18.20;80.60;;;;;;5097471;28;20175;-87
2022/09/13 02:30:09;;;;;;;4.90;4.57;;;18.30;80.80;;;;;;5088145;28;20252;-87
2022/09/13 02:33:17;;;;;;;5.82;4.60;;;18.30;80.70;;;;;;5101694;28;20188;-86
2022/09/13 02:35:53;;;;;;;4.90;4.60;;;18.20;80.90;;;;;;5096420;28;20214;-87
2022/09/13 02:38:24;;;;;;;5.00;4.60;;;18.20;80.70;;;;;;5100604;28;20195;-88
2022/09/13 02:41:00;;;;;;;5.68;4.75;;;18.30;80.60;;;;;;5088539;28;20214;-87
2022/09/13 02:43:38;;;;;;;5.00;4.50;;;18.20;80.00;;;;;;5093700;28;20210;-87
2022/09/13 02:46:41;;;;;;;6.28;4.57;;;18.10;80.80;;;;;;5090853;28;20214;-87
2022/09/13 02:49:14;;;;;;;4.60;4.25;;;18.10;80.80;;;;;;5098481;28;20534;-87
2022/09/13 02:52:01;;;;;;;4.82;4.40;;;18.00;80.70;;;;;;5102854;28;20195;-87
2022/09/13 02:54:42;;;;;;;6.50;4.63;;;18.00;80.90;;;;;;5087832;28;20190;-87
2022/09/13 02:57:28;;;;;;;6.40;4.68;;;18.00;81.60;;;;;;5093189;28;20192;-86
2022/09/13 02:59:54;;;;;;;4.50;4.20;;;17.90;81.60;;;;;;5083375;28;20219;-87
2022/09/13 03:02:23;;;;;;;5.45;4.63;;;18.00;81.70;;;;;;5086516;28;20209;-88
2022/09/13 03:04:50;;;;;;;4.90;4.50;;;17.90;81.50;;;;;;5083964;28;20187;-87
2022/09/13 03:07:16;;;;;;;5.88;4.65;;;17.90;81.10;;;;;;5095593;28;20207;-87
2022/09/13 03:09:49;;;;;;;4.70;4.30;;;17.80;82.00;;;;;;5099857;28;20229;-87
2022/09/13 03:12:17;;;;;;;5.68;4.65;;;17.80;81.90;;;;;;5102911;28;20240;-86
2022/09/13 03:15:21;;;;;;;5.45;4.60;;;17.90;81.30;;;;;;5102809;28;20411;-87
2022/09/13 03:18:24;;;;;;;4.88;4.47;;;17.90;81.20;;;;;;5097422;28;20190;-87
2022/09/13 03:21:24;;;;;;;5.03;4.60;;;17.90;81.30;;;;;;5087749;28;20215;-87
2022/09/13 03:24:17;;;;;;;5.10;4.70;;;17.90;81.10;;;;;;5093036;28;20202;-87
2022/09/13 03:27:08;;;;;;;5.43;4.63;;;17.80;81.10;;;;;;5103849;28;20176;-88
2022/09/13 03:29:40;;;;;;;6.75;5.00;;;17.80;81.30;;;;;;5106209;28;20226;-87
2022/09/13 03:32:33;;;;;;;6.40;5.20;;;17.70;80.90;;;;;;5096800;28;20254;-87
2022/09/13 03:35:17;;;;;;;6.55;5.50;;;17.30;83.50;;;;;;5093060;28;20190;-87
2022/09/13 03:38:02;;;;;;;5.20;4.63;;;17.10;84.30;;;;;;5088906;28;20209;-86
2022/09/13 03:40:37;;;;;;;5.28;4.72;;;17.10;84.90;;;;;;5096199;28;20313;-88
2022/09/13 03:43:10;;;;;;;5.40;5.00;;;17.10;84.80;;;;;;5102994;28;20209;-87
2022/09/13 03:45:42;;;;;;;5.20;4.70;;;17.30;84.60;;;;;;5098977;28;20175;-86
2022/09/13 03:48:11;;;;;;;5.20;4.75;;;17.30;84.60;;;;;;5095190;28;20198;-87
2022/09/13 03:50:38;;;;;;;5.00;4.60;;;17.40;84.30;;;;;;5098861;28;20210;-87
2022/09/13 03:53:09;;;;;;;5.78;4.95;;;17.40;83.30;;;;;;5089111;28;20191;-87
2022/09/13 03:55:39;;;;;;;5.65;4.78;;;17.40;83.70;;;;;;5099785;28;20187;-88
2022/09/13 03:58:05;;;;;;;4.78;4.38;;;17.50;83.60;;;;;;5102292;28;20187;-87
2022/09/13 04:00:31;;;;;;;6.03;4.55;;;17.50;82.70;;;;;;5091599;28;20317;-87
2022/09/13 04:02:56;;;;;;;5.32;4.82;;;17.50;82.90;;;;;;5105603;28;20206;-86
2022/09/13 04:05:22;;;;;;;4.68;4.30;;;17.20;83.60;;;;;;5107931;28;20185;-87
2022/09/13 04:07:48;;;;;;;5.30;4.80;;;17.10;85.50;;;;;;5091591;28;20248;-87
2022/09/13 04:10:14;;;;;;;5.35;4.95;;;17.20;86.20;;;;;;5091981;28;20239;-88
2022/09/13 04:12:40;;;;;;;5.50;5.00;;;17.20;86.10;;;;;;5106237;28;20199;-88
2022/09/13 04:15:06;;;;;;;5.78;4.93;;;17.20;84.70;;;;;;5109978;28;20187;-88
2022/09/13 04:17:32;;;;;;;4.93;4.40;;;17.20;85.80;;;;;;5091558;28;20216;-88
2022/09/13 04:19:57;;;;;;;5.07;4.68;;;17.20;84.80;;;;;;5097248;28;20758;-88
2022/09/13 04:22:23;;;;;;;6.55;4.60;;;17.30;85.60;;;;;;5101714;28;20222;-89
2022/09/13 04:24:49;;;;;;;5.30;4.90;;;17.30;85.50;;;;;;5095025;28;20182;-89
2022/09/13 04:27:14;;;;;;;4.60;4.30;;;17.40;85.10;;;;;;5100832;28;20186;-89
2022/09/13 04:29:41;;;;;;;4.70;4.25;;;17.50;84.70;;;;;;5093628;28;20211;-89
2022/09/13 04:32:08;;;;;;;6.55;4.70;;;17.50;84.30;;;;;;5098600;28;20183;-89
2022/09/13 04:34:34;;;;;;;5.30;4.82;;;17.40;84.20;;;;;;5096679;28;20191;-89
2022/09/13 04:36:59;;;;;;;5.70;5.13;;;17.40;84.20;;;;;;5093576;28;20199;-88
2022/09/13 04:39:25;;;;;;;5.32;4.82;;;17.30;84.90;;;;;;5099554;28;20206;-88
2022/09/13 04:41:53;;;;;;;4.50;4.20;;;17.40;85.20;;;;;;5096161;28;20677;-89
2022/09/13 04:44:20;;;;;;;5.35;4.90;;;17.40;84.80;;;;;;5097144;28;20239;-89
2022/09/13 04:46:47;;;;;;;6.00;5.18;;;17.50;84.80;;;;;;5105319;28;20190;-90
2022/09/13 04:49:14;;;;;;;5.80;4.45;;;17.50;84.30;;;;;;5098040;28;20199;-88
2022/09/13 04:51:40;;;;;;;5.38;4.68;;;17.60;83.90;;;;;;5093037;28;20184;-88
2022/09/13 04:54:08;;;;;;;5.30;4.65;;;17.50;83.90;;;;;;5095589;28;20206;-88
2022/09/13 04:56:33;;;;;;;5.15;4.75;;;17.40;83.90;;;;;;5091566;28;20183;-86
2022/09/13 04:58:59;;;;;;;4.72;4.40;;;17.40;84.50;;;;;;5089106;28;20222;-86
2022/09/13 05:01:24;;;;;;;5.00;4.60;;;17.40;84.90;;;;;;5062079;28;20280;-87
2022/09/13 05:03:54;;;;;;;4.53;4.15;;;17.40;84.80;;;;;;5091426;28;20219;-88
2022/09/13 05:06:20;;;;;;;4.80;4.43;;;17.40;84.70;;;;;;5105907;28;20187;-87
2022/09/13 05:08:54;;;;;;;10.15;4.75;;;17.40;84.70;;;;;;5112933;28;20203;-87
2022/09/13 05:11:27;;;;;;;5.00;4.50;;;17.40;84.60;;;;;;5104153;28;20302;-87
2022/09/13 05:13:59;;;;;;;5.13;4.57;;;17.40;84.80;;;;;;5111149;28;20171;-87
2022/09/13 05:16:31;;;;;;;5.32;4.82;;;17.50;84.80;;;;;;5100402;28;20195;-86
2022/09/13 05:18:57;;;;;;;5.45;4.65;;;17.40;84.30;;;;;;5104935;27;20168;-87
2022/09/13 05:21:23;;;;;;;4.72;4.30;;;17.30;85.40;;;;;;5099536;28;20218;-87
2022/09/13 05:23:49;;;;;;;5.05;4.60;;;17.30;85.70;;;;;;5099194;28;20206;-87
2022/09/13 05:26:15;;;;;;;5.32;4.93;;;17.30;86.00;;;;;;5095057;28;20202;-87
2022/09/13 05:28:41;;;;;;;7.35;4.88;;;17.30;86.00;;;;;;5096211;28;20189;-86
2022/09/13 05:31:12;;;;;;;5.15;4.45;;;17.30;85.30;;;;;;5091902;28;20219;-87
2022/09/13 05:33:38;;;;;;;4.80;4.40;;;17.30;86.20;;;;;;5089903;28;20203;-86
2022/09/13 05:36:05;;;;;;;5.05;4.65;;;17.30;86.40;;;;;;5087798;28;20188;-86
2022/09/13 05:38:31;;;;;;;5.10;4.70;;;17.20;86.30;;;;;;5086782;28;20197;-86
2022/09/13 05:40:59;;;;;;;5.10;4.70;;;17.10;87.20;;;;;;5092405;28;20202;-87
2022/09/13 05:43:26;;;;;;;5.05;4.65;;;17.00;88.00;;;;;;5096990;28;20204;-86
2022/09/13 05:46:06;;;;;;;4.78;4.38;;;17.10;88.00;;;;;;5090072;28;20202;-87
2022/09/13 05:48:33;;;;;;;5.95;5.20;;;17.10;87.70;;;;;;5089069;28;20190;-87
2022/09/13 05:51:09;;;;;;;5.47;4.95;;;17.20;88.10;;;;;;5095994;28;20255;-87
2022/09/13 05:53:38;;;;;;;4.90;4.55;;;17.20;87.90;;;;;;5088317;28;20656;-87
2022/09/13 05:56:05;;;;;;;6.55;4.45;;;17.20;87.70;;;;;;5090635;28;20265;-87
2022/09/13 05:58:32;;;;;;;5.88;4.45;;;17.20;87.70;;;;;;5089970;28;20183;-86
2022/09/13 06:00:58;;;;;;;5.18;4.68;;;17.30;87.50;;;;;;5090573;28;20773;-87
2022/09/13 06:03:24;;;;;;;4.85;4.50;;;17.30;86.90;;;;;;5090302;28;20241;-87
2022/09/13 06:05:55;;;;;;;6.28;5.15;;;17.30;87.30;;;;;;5086737;28;20665;-86
2022/09/13 06:08:21;;;;;;;5.38;4.97;;;17.40;87.10;;;;;;5092803;28;20182;-87
2022/09/13 06:10:58;;;;;;;6.25;5.65;;;17.30;87.50;;;;;;5089946;28;20396;-86
2022/09/13 06:13:25;;;;;;;5.20;4.80;;;17.50;87.10;;;;;;5086354;28;20214;-87
2022/09/13 06:15:51;;;;;;;5.57;5.05;;;17.50;87.80;;;;;;5086145;28;20650;-87
2022/09/13 06:18:17;;;;;;;5.18;4.70;;;17.50;87.80;;;;;;5087420;28;20524;-87
2022/09/13 06:20:43;;;;;;;6.25;4.90;;;17.50;87.80;;;;;;5091915;28;20257;-87
2022/09/13 06:23:08;;;;;;;5.30;4.80;;;17.60;87.50;;;;;;5087620;28;20238;-88
2022/09/13 06:25:34;;;;;;;7.70;5.10;;;17.50;88.50;;;;;;5090988;28;20232;-86
2022/09/13 06:28:00;;;;;;;6.13;5.10;;;17.60;87.90;;;;;;5095666;28;20187;-87
2022/09/13 06:30:26;;;;;;;5.93;5.30;;;17.50;88.50;;;;;;5092712;28;20263;-87
2022/09/13 06:32:51;;;;;;;7.57;5.63;;;17.50;88.20;;;;;;5093281;28;20237;-86
2022/09/13 06:35:17;;;;;;;6.40;5.32;;;17.40;90.00;;;;;;5091445;28;20194;-87
2022/09/13 06:37:43;;;;;;;6.38;4.88;;;17.40;90.00;;;;;;5091264;28;20194;-86
2022/09/13 06:40:09;;;;;;;5.78;4.60;;;17.50;89.40;;;;;;5093515;28;20226;-86
2022/09/13 06:42:35;;;;;;;9.65;5.00;;;17.50;89.40;;;;;;5089591;28;20226;-87
2022/09/13 06:45:02;;;;;;;7.03;5.20;;;17.60;88.60;;;;;;5088886;28;20186;-86
2022/09/13 06:47:28;;;;;;;5.95;4.88;;;17.80;87.20;;;;;;5098694;28;20187;-86
2022/09/13 06:49:53;;;;;;;5.72;4.70;;;18.00;86.90;;;;;;5093788;28;20215;-87
2022/09/13 06:52:19;;;;;;;5.15;4.68;;;18.10;86.80;;;;;;5090126;28;20236;-86
2022/09/13 06:54:45;;;;;;;6.57;5.30;;;18.10;87.30;;;;;;5093082;28;20191;-86
2022/09/13 06:57:10;;;;;;;7.22;5.30;;;18.10;87.30;;;;;;5087713;28;20184;-87
2022/09/13 06:59:36;;;;;;;6.00;5.10;;;18.20;87.50;;;;;;5106218;28;20218;-89
2022/09/13 07:02:02;;;;;;;5.60;5.10;;;18.30;88.20;;;;;;5104504;28;20204;-86
2022/09/13 07:04:30;;;;;;;6.03;5.35;;;18.40;87.20;;;;;;5097426;28;20187;-86
2022/09/13 07:06:58;;;;;;;5.65;4.85;;;18.30;86.40;;;;;;5093851;28;20183;-87
2022/09/13 07:09:24;;;;;;;6.30;5.38;;;18.40;85.90;;;;;;5092871;28;20226;-86
2022/09/13 07:11:52;;;;;;;5.47;4.97;;;18.50;86.00;;;;;;5091792;28;20194;-87
2022/09/13 07:14:23;;;;;;;6.05;4.95;;;18.50;86.40;;;;;;5092118;28;20202;-87
2022/09/13 07:16:51;;;;;;;5.60;5.10;;;18.70;84.30;;;;;;5086530;28;20566;-87
2022/09/13 07:19:21;;;;;;;6.68;5.22;;;18.80;83.80;;;;;;5088053;28;20236;-86
2022/09/13 07:21:48;;;;;;;8.02;5.55;;;19.10;83.40;;;;;;5095765;28;20171;-87
2022/09/13 07:24:15;;;;;;;5.32;4.88;;;19.10;85.20;;;;;;5089809;28;20273;-86
2022/09/13 07:26:41;;;;;;;5.32;4.82;;;19.20;84.90;;;;;;5089193;28;20174;-87
2022/09/13 07:29:12;;;;;;;8.50;4.93;;;19.20;84.50;;;;;;5092713;28;20561;-87
2022/09/13 07:31:39;;;;;;;6.22;5.63;;;19.40;84.40;;;;;;5090098;28;20439;-87
2022/09/13 07:34:07;;;;;;;8.18;5.15;;;19.40;84.00;;;;;;5095302;28;20217;-87
2022/09/13 07:36:35;;;;;;;6.70;5.68;;;19.10;84.00;;;;;;5086723;28;20186;-87
2022/09/13 07:39:01;;;;;;;7.55;5.10;;;18.90;86.30;;;;;;5091298;28;20574;-86
2022/09/13 07:41:28;;;;;;;6.90;5.05;;;18.90;85.10;;;;;;5096500;28;20703;-87
2022/09/13 07:43:55;;;;;;;5.18;4.72;;;19.10;84.40;;;;;;5090498;28;20248;-87
2022/09/13 07:46:23;;;;;;;5.55;4.93;;;19.00;84.30;;;;;;5080528;28;20234;-86
2022/09/13 07:48:52;;;;;;;5.32;4.85;;;19.00;84.60;;;;;;5094669;28;20550;-86
2022/09/13 07:51:26;;;;;;;7.47;5.07;;;19.20;84.00;;;;;;5096373;28;20269;-86
2022/09/13 07:53:56;;;;;;;5.80;5.30;;;19.30;83.20;;;;;;5099653;28;20276;-89
2022/09/13 07:56:27;;;;;;;7.00;5.25;;;19.20;81.70;;;;;;5088481;28;20195;-86
2022/09/13 07:58:54;;;;;;;9.38;5.45;;;19.50;82.40;;;;;;5094351;28;20214;-87
2022/09/13 08:01:25;;;;;;;7.45;4.90;;;19.60;82.60;;;;;;5086925;28;20205;-87
2022/09/13 08:03:59;;;;;;;4.90;4.53;;;19.70;83.80;;;;;;5091737;28;20577;-87
2022/09/13 08:06:27;;;;;;;5.10;4.70;;;19.80;81.10;;;;;;5092551;28;20192;-86
2022/09/13 08:08:53;;;;;;;5.05;4.65;;;19.90;80.70;;;;;;5090847;28;20202;-86
2022/09/13 08:11:21;;;;;;;6.10;4.80;;;20.00;81.10;;;;;;5093846;28;20218;-86
2022/09/13 08:13:47;;;;;;;4.95;4.55;;;20.00;82.50;;;;;;5100442;28;20190;-87
2022/09/13 08:16:14;;;;;;;5.40;4.90;;;20.10;82.00;;;;;;5098466;28;20570;-87
2022/09/13 08:18:47;;;;;;;6.53;4.57;;;20.20;81.50;;;;;;5093472;28;20175;-87
2022/09/13 08:21:14;;;;;;;6.53;5.25;;;20.10;81.00;;;;;;5096463;28;20676;-87
2022/09/13 08:23:40;;;;;;;6.43;5.20;;;20.20;80.80;;;;;;5088023;28;20245;-86
2022/09/13 08:26:07;;;;;;;6.20;5.60;;;20.20;81.10;;;;;;5097186;28;20665;-86
2022/09/13 08:28:39;;;;;;;5.75;5.13;;;20.30;80.40;;;;;;5094025;28;20183;-86
2022/09/13 08:31:06;;;;;;;5.32;4.72;;;20.30;78.90;;;;;;5102298;28;20712;-87
2022/09/13 08:33:32;;;;;;;4.75;4.45;;;20.40;80.60;;;;;;5098863;28;20187;-86
2022/09/13 08:35:58;;;;;;;4.78;4.40;;;20.60;80.30;;;;;;5101657;28;20243;-87
2022/09/13 08:38:24;;;;;;;4.95;4.47;;;20.70;80.20;;;;;;5100627;28;20191;-87
2022/09/13 08:40:55;;;;;;;5.15;4.50;;;20.70;79.00;;;;;;5113818;28;20677;-88
2022/09/13 08:43:47;;;;;;;4.18;3.75;;;20.70;77.70;;;;;;5101969;28;20214;-86
2022/09/13 08:46:28;;;;;;;4.80;4.32;;;20.80;78.40;;;;;;5087164;28;20203;-87
2022/09/13 08:49:05;;;;;;;4.63;4.25;;;21.00;76.50;;;;;;5099737;28;20182;-87
2022/09/13 08:51:43;;;;;;;4.32;4.03;;;21.00;77.20;;;;;;5090784;28;20233;-87
2022/09/13 08:54:15;;;;;;;5.60;4.35;;;21.10;76.50;;;;;;5093498;28;20259;-88
2022/09/13 08:57:02;;;;;;;4.53;4.13;;;21.20;76.60;;;;;;5093881;28;20186;-88
2022/09/13 08:59:49;;;;;;;4.43;4.07;;;21.30;76.30;;;;;;5096858;28;20199;-87
2022/09/13 09:02:24;;;;;;;5.07;4.68;;;21.60;75.20;;;;;;5086585;28;20195;-87
2022/09/13 09:05:04;;;;;;;4.43;4.13;;;21.70;74.60;;;;;;5087014;28;20208;-87
2022/09/13 09:07:36;;;;;;;6.47;4.85;;;21.80;75.50;;;;;;5088280;28;20183;-86
2022/09/13 09:10:19;;;;;;;4.88;4.32;;;21.80;71.80;;;;;;5090678;28;20286;-88
2022/09/13 09:13:02;;;;;;;4.90;4.40;;;21.80;70.50;;;;;;5089997;28;20180;-88
2022/09/13 09:15:36;;;;;;;5.60;4.65;;;21.80;72.40;;;;;;5095911;28;20190;-87
2022/09/13 09:18:13;;;;;;;5.43;4.93;;;21.80;68.30;;;;;;5087143;28;20278;-91
2022/09/13 09:20:45;;;;;;;13.55;4.82;;;21.80;67.40;;;;;;5091455;28;20218;-88
2022/09/13 09:23:18;;;;;;;5.22;4.32;;;21.50;70.90;;;;;;5086555;28;20196;-87
2022/09/13 09:25:44;;;;;;;5.03;4.13;;;21.60;69.00;;;;;;5086408;28;20176;-87
2022/09/13 09:28:16;;;;;;;4.78;4.13;;;21.90;68.50;;;;;;5088597;28;20183;-88
2022/09/13 09:31:06;;;;;;;4.43;4.13;;;22.10;68.80;;;;;;5088002;28;20602;-87
2022/09/13 09:33:41;;;;;;;4.32;3.97;;;22.20;68.70;;;;;;5091847;28;20200;-87
2022/09/13 09:36:12;;;;;;;4.35;4.03;;;22.30;68.30;;;;;;5094712;28;20183;-88
2022/09/13 09:38:42;;;;;;;4.82;4.07;;;22.60;65.70;;;;;;5096633;28;20238;-87
2022/09/13 09:41:28;;;;;;;4.78;3.83;;;22.80;65.70;;;;;;5082797;28;20210;-87
2022/09/13 09:44:17;;;;;;;4.43;4.03;;;23.10;63.10;;;;;;5098940;28;20202;-89
2022/09/13 09:46:50;;;;;;;4.40;3.95;;;23.30;61.70;;;;;;5103660;28;20164;-87
2022/09/13 09:52:29;;;;;;;4.32;3.97;;;23.50;61.90;;;;;;5079155;28;20202;-87
2022/09/13 09:55:02;;;;;;;4.40;4.10;;;23.30;64.50;;;;;;5087626;28;20180;-88
2022/09/13 09:57:51;;;;;;;4.70;4.30;;;23.50;62.70;;;;;;5088319;28;20237;-87
2022/09/13 10:00:18;;;;;;;4.13;3.83;;;23.30;62.70;;;;;;5089389;28;20206;-87
2022/09/13 10:02:44;;;;;;;4.65;4.25;;;23.10;63.30;;;;;;5094833;28;20685;-87
2022/09/13 10:05:13;;;;;;;4.32;3.92;;;23.00;63.30;;;;;;5089439;28;20338;-88
2022/09/13 10:07:40;;;;;;;4.38;3.97;;;23.10;61.80;;;;;;5089817;28;20195;-87
2022/09/13 10:10:19;;;;;;;4.47;4.18;;;23.50;60.60;;;;;;5090503;28;20234;-87
2022/09/13 10:12:50;;;;;;;5.93;4.13;;;23.70;59.20;;;;;;5093906;28;20178;-88
2022/09/13 10:15:19;;;;;;;6.45;4.20;;;24.10;58.60;;;;;;5088475;28;20274;-88
2022/09/13 10:18:15;;;;;;;5.78;3.90;;;24.40;57.10;;;;;;5084248;28;20188;-87
2022/09/13 10:20:41;;;;;;;4.53;3.95;;;24.70;55.40;;;;;;5089593;28;20207;-87
2022/09/13 10:23:11;;;;;;;4.20;3.80;;;24.90;53.40;;;;;;5094149;28;20203;-87
2022/09/13 10:25:38;;;;;;;3.45;3.25;;;24.80;51.90;;;;;;5085738;28;20191;-87
2022/09/13 10:28:08;;;;;;;4.15;3.85;;;25.00;47.80;;;;;;5082975;28;20203;-88
2022/09/13 10:30:46;;;;;;;4.22;3.80;;;25.30;50.60;;;;;;5086909;28;20210;-87
2022/09/13 10:33:34;;;;;;;4.88;4.47;;;25.60;50.00;;;;;;5081943;28;20252;-87
2022/09/13 10:36:13;;;;;;;4.15;3.60;;;25.70;53.20;;;;;;5092990;28;20213;-87
2022/09/13 10:38:41;;;;;;;5.10;3.67;;;25.80;51.20;;;;;;5097120;28;20876;-88
2022/09/13 10:41:21;;;;;;;3.50;3.30;;;25.80;51.30;;;;;;5096121;28;20682;-88
2022/09/13 10:43:55;;;;;;;4.18;3.78;;;25.60;51.00;;;;;;5086613;28;20226;-88
2022/09/13 10:46:22;;;;;;;4.28;3.97;;;25.40;53.40;;;;;;5087486;28;20191;-87
2022/09/13 10:48:55;;;;;;;4.10;3.80;;;25.30;53.90;;;;;;5101368;28;20232;-87
2022/09/13 10:51:26;;;;;;;5.22;3.85;;;25.30;54.90;;;;;;5094904;28;20207;-88
2022/09/13 10:54:17;;;;;;;4.10;3.80;;;25.50;54.30;;;;;;5097154;28;20179;-89
2022/09/13 10:56:44;;;;;;;4.10;3.80;;;25.50;54.00;;;;;;5089085;28;20187;-87
2022/09/13 10:59:28;;;;;;;4.38;4.07;;;25.20;54.20;;;;;;5098023;28;20222;-88
2022/09/13 11:02:25;;;;;;;3.97;3.67;;;25.30;54.70;;;;;;5098484;28;20189;-87
2022/09/13 11:05:00;;;;;;;4.55;4.20;;;25.30;55.20;;;;;;5097282;28;20175;-87
2022/09/13 11:07:39;;;;;;;4.22;3.83;;;25.50;53.30;;;;;;5094298;28;20182;-87
2022/09/13 11:10:20;;;;;;;3.67;3.47;;;25.80;52.50;;;;;;5112041;28;20215;-88
2022/09/13 11:13:14;;;;;;;4.35;4.05;;;26.10;52.50;;;;;;5097235;28;20186;-87
2022/09/13 11:16:05;;;;;;;3.90;3.60;;;26.40;51.60;;;;;;5094208;28;20183;-87
2022/09/13 11:18:41;;;;;;;3.83;3.53;;;26.70;51.60;;;;;;5100221;28;20194;-87
2022/09/13 11:21:39;;;;;;;4.28;3.97;;;26.70;50.90;;;;;;5096143;28;20203;-87
2022/09/13 11:24:42;;;;;;;4.03;3.67;;;26.80;50.20;;;;;;5094975;28;20202;-88
2022/09/13 11:27:20;;;;;;;4.35;3.80;;;27.00;51.10;;;;;;5077331;28;20195;-88
2022/09/13 11:30:09;;;;;;;4.40;3.90;;;27.20;49.00;;;;;;5102885;28;20241;-88
2022/09/13 11:32:46;;;;;;;3.72;3.47;;;27.20;48.80;;;;;;5097030;28;20187;-87
2022/09/13 11:35:32;;;;;;;4.88;3.60;;;27.20;48.50;;;;;;5094086;28;20178;-89
2022/09/13 11:38:29;;;;;;;5.03;3.90;;;27.30;47.10;;;;;;5087220;28;20183;-87
2022/09/13 11:41:19;;;;;;;4.45;3.80;;;27.10;48.30;;;;;;5090345;28;20235;-88
2022/09/13 11:44:18;;;;;;;4.20;3.92;;;27.00;48.40;;;;;;5090753;28;20211;-88
2022/09/13 11:47:15;;;;;;;4.82;4.43;;;26.90;48.50;;;;;;5097281;28;20185;-88
2022/09/13 11:50:00;;;;;;;4.32;4.00;;;27.00;50.20;;;;;;5094109;28;20207;-88
2022/09/13 11:52:43;;;;;;;4.32;3.90;;;27.10;49.90;;;;;;5097382;28;20187;-88
2022/09/13 11:55:23;;;;;;;5.53;4.60;;;27.10;50.20;;;;;;5087165;28;20193;-88
2022/09/13 11:57:54;;;;;;;4.70;4.30;;;26.90;49.90;;;;;;5093416;28;20176;-87
2022/09/13 12:00:29;;;;;;;4.25;3.95;;;27.00;50.40;;;;;;5084936;28;20218;-87
2022/09/13 12:03:09;;;;;;;5.43;4.75;;;27.50;49.40;;;;;;5094762;28;20267;-88
2022/09/13 12:05:44;;;;;;;4.70;4.40;;;27.50;47.40;;;;;;5099950;28;20251;-89
2022/09/13 12:08:16;;;;;;;4.82;4.30;;;28.00;46.80;;;;;;5094585;28;20193;-90
2022/09/13 12:10:56;;;;;;;4.82;4.50;;;28.30;45.40;;;;;;5096787;28;20227;-90
2022/09/13 12:13:41;;;;;;;4.72;4.32;;;28.50;43.40;;;;;;5093171;28;20275;-89
2022/09/13 12:16:13;;;;;;;4.97;4.22;;;28.80;41.60;;;;;;5089882;28;20184;-90
2022/09/13 12:18:49;;;;;;;4.97;4.57;;;29.10;42.60;;;;;;5092421;28;20187;-89
2022/09/13 12:21:20;;;;;;;4.90;4.40;;;29.50;41.50;;;;;;5096164;28;20557;-90
2022/09/13 12:24:00;;;;;;;4.82;4.53;;;29.50;38.30;;;;;;5096531;28;20679;-90
2022/09/13 12:26:34;;;;;;;5.10;4.70;;;29.70;39.50;;;;;;5100958;28;20167;-89
2022/09/13 12:29:31;;;;;;;6.25;5.28;;;30.00;39.80;;;;;;5112545;28;20163;-88
2022/09/13 12:32:03;;;;;;;5.20;4.80;;;30.40;38.70;;;;;;5109543;28;20240;-89
2022/09/13 12:34:39;;;;;;;5.18;4.57;;;30.90;36.10;;;;;;5093329;28;20269;-90
2022/09/13 12:37:18;;;;;;;5.13;4.70;;;31.20;34.50;;;;;;5088061;28;20187;-88
2022/09/13 12:40:03;;;;;;;5.55;5.15;;;31.30;34.60;;;;;;5092474;28;20224;-88
2022/09/13 12:42:53;;;;;;;4.97;4.60;;;30.90;35.70;;;;;;5092582;28;20286;-87
2022/09/13 12:46:00;;;;;;;4.78;4.45;;;31.00;36.80;;;;;;5100995;28;20190;-88
2022/09/13 12:48:53;;;;;;;5.55;4.30;;;30.90;35.80;;;;;;5074449;28;20285;-89
2022/09/13 12:51:28;;;;;;;4.13;3.80;;;30.70;35.20;;;;;;5091978;28;20229;-88
2022/09/13 12:54:06;;;;;;;3.85;3.55;;;30.30;34.80;;;;;;5090637;28;20183;-88
2022/09/13 12:57:07;;;;;;;4.97;3.97;;;30.20;35.30;;;;;;5102189;28;20198;-88
2022/09/13 13:00:09;;;;;;;4.70;4.10;;;30.50;36.70;;;;;;5097888;28;20615;-88
2022/09/13 13:02:36;;;;;;;4.30;4.00;;;30.90;35.10;;;;;;5074692;28;20214;-88
2022/09/13 13:05:17;;;;;;;4.38;3.97;;;31.20;35.50;;;;;;5095339;28;20182;-88
2022/09/13 13:07:51;;;;;;;4.22;3.92;;;31.50;34.50;;;;;;5104048;28;20186;-88
2022/09/13 13:10:36;;;;;;;3.90;3.55;;;31.80;33.60;;;;;;5100887;28;20222;-88
2022/09/13 13:13:20;;;;;;;4.15;3.85;;;31.80;32.10;;;;;;5104299;28;20182;-89
2022/09/13 13:15:45;;;;;;;4.40;4.10;;;32.00;31.30;;;;;;5098323;28;20183;-88
2022/09/13 13:18:21;;;;;;;4.25;3.90;;;31.80;31.90;;;;;;5092925;28;20526;-88
2022/09/13 13:21:20;;;;;;;4.22;3.80;;;31.40;32.80;;;;;;5101607;28;20202;-88
2022/09/13 13:23:46;;;;;;;4.10;3.80;;;31.40;32.60;;;;;;5100737;28;20287;-88
2022/09/13 13:26:40;;;;;;;4.13;3.80;;;31.40;32.80;;;;;;5086247;28;20195;-88